sensor_id;sensor_type;location;lat;lon;timestamp;pressure;altitude;pressure_sealevel;temperature;humidity
59274;BME280;45044;41.572;24.730;2023-02-01T00:01:11;91073.69;;;-4.28;100.00
59274;BME280;45044;41.572;24.730;2023-02-01T00:03:38;91070.28;;;-4.37;100.00
59274;BME280;45044;41.572;24.730;2023-02-01T00:06:05;91070.47;;;-4.34;100.00
59274;BME280;45044;41.572;24.730;2023-02-01T00:08:33;91062.19;;;-4.30;100.00
59274;BME280;45044;41.572;24.730;2023-02-01T00:11:09;91072.47;;;-4.16;100.00
59274;BME280;45044;41.572;24.730;2023-02-01T00:13:38;91068.84;;;-4.58;100.00
59274;BME280;45044;41.572;24.730;2023-02-01T00:16:18;91059.25;;;-4.52;100.00
59274;BME280;45044;41.572;24.730;2023-02-01T00:18:47;91058.78;;;-4.26;100.00
59274;BME280;45044;41.572;24.730;2023-02-01T00:21:17;91062.00;;;-4.34;100.00
59274;BME280;45044;41.572;24.730;2023-02-01T00:23:45;91061.25;;;-4.35;100.00
59274;BME280;45044;41.572;24.730;2023-02-01T00:26:19;91058.97;;;-4.36;100.00
59274;BME280;45044;41.572;24.730;2023-02-01T00:28:47;91063.69;;;-4.15;100.00
59274;BME280;45044;41.572;24.730;2023-02-01T00:31:14;91064.75;;;-4.16;100.00
59274;BME280;45044;41.572;24.730;2023-02-01T00:33:41;91059.13;;;-4.04;100.00
59274;BME280;45044;41.572;24.730;2023-02-01T00:36:09;91059.50;;;-4.11;100.00
59274;BME280;45044;41.572;24.730;2023-02-01T00:38:38;91070.72;;;-3.93;100.00
59274;BME280;45044;41.572;24.730;2023-02-01T00:41:17;91078.59;;;-3.89;100.00
59274;BME280;45044;41.572;24.730;2023-02-01T00:43:45;91061.53;;;-3.85;100.00
59274;BME280;45044;41.572;24.730;2023-02-01T00:46:13;91070.09;;;-3.76;100.00
59274;BME280;45044;41.572;24.730;2023-02-01T00:48:41;91074.75;;;-3.78;100.00
59274;BME280;45044;41.572;24.730;2023-02-01T00:51:11;91070.81;;;-3.61;100.00
59274;BME280;45044;41.572;24.730;2023-02-01T00:53:39;91070.13;;;-3.53;100.00
59274;BME280;45044;41.572;24.730;2023-02-01T00:56:06;91071.03;;;-3.49;100.00
59274;BME280;45044;41.572;24.730;2023-02-01T00:58:33;91055.50;;;-3.43;100.00
59274;BME280;45044;41.572;24.730;2023-02-01T01:01:14;91059.75;;;-3.16;100.00
59274;BME280;45044;41.572;24.730;2023-02-01T01:03:46;91063.91;;;-3.06;100.00
59274;BME280;45044;41.572;24.730;2023-02-01T01:06:16;91064.59;;;-2.91;100.00
59274;BME280;45044;41.572;24.730;2023-02-01T01:08:44;91070.66;;;-2.87;100.00
59274;BME280;45044;41.572;24.730;2023-02-01T01:11:12;91079.19;;;-2.78;100.00
59274;BME280;45044;41.572;24.730;2023-02-01T01:13:40;91073.88;;;-2.81;100.00
59274;BME280;45044;41.572;24.730;2023-02-01T01:16:08;91067.56;;;-2.75;100.00
59274;BME280;45044;41.572;24.730;2023-02-01T01:18:36;91081.22;;;-2.66;100.00
59274;BME280;45044;41.572;24.730;2023-02-01T01:21:07;91076.25;;;-2.62;100.00
59274;BME280;45044;41.572;24.730;2023-02-01T01:23:36;91081.38;;;-2.62;100.00
59274;BME280;45044;41.572;24.730;2023-02-01T01:26:12;91086.53;;;-2.62;100.00
59274;BME280;45044;41.572;24.730;2023-02-01T01:28:40;91077.56;;;-2.65;100.00
59274;BME280;45044;41.572;24.730;2023-02-01T01:31:09;91072.88;;;-2.71;100.00
59274;BME280;45044;41.572;24.730;2023-02-01T01:33:36;91086.94;;;-2.69;100.00
59274;BME280;45044;41.572;24.730;2023-02-01T01:36:07;91069.69;;;-2.68;100.00
59274;BME280;45044;41.572;24.730;2023-02-01T01:38:41;91068.38;;;-2.57;100.00
59274;BME280;45044;41.572;24.730;2023-02-01T01:41:15;91073.09;;;-2.50;100.00
59274;BME280;45044;41.572;24.730;2023-02-01T01:46:32;91077.06;;;-2.44;100.00
59274;BME280;45044;41.572;24.730;2023-02-01T01:51:42;91090.53;;;-2.38;100.00
59274;BME280;45044;41.572;24.730;2023-02-01T01:54:23;91083.41;;;-2.41;100.00
59274;BME280;45044;41.572;24.730;2023-02-01T01:56:58;91086.00;;;-2.41;100.00
59274;BME280;45044;41.572;24.730;2023-02-01T01:59:27;91084.28;;;-2.55;100.00
59274;BME280;45044;41.572;24.730;2023-02-01T02:01:54;91073.53;;;-2.57;100.00
59274;BME280;45044;41.572;24.730;2023-02-01T02:04:22;91069.38;;;-2.67;100.00
59274;BME280;45044;41.572;24.730;2023-02-01T02:07:11;91070.75;;;-2.69;100.00
59274;BME280;45044;41.572;24.730;2023-02-01T02:09:40;91084.53;;;-2.65;100.00
59274;BME280;45044;41.572;24.730;2023-02-01T02:12:25;91081.06;;;-2.92;100.00
59274;BME280;45044;41.572;24.730;2023-02-01T02:14:52;91074.91;;;-2.91;100.00
59274;BME280;45044;41.572;24.730;2023-02-01T02:28:24;91080.09;;;-3.05;100.00
59274;BME280;45044;41.572;24.730;2023-02-01T02:31:20;91082.91;;;-3.16;100.00
59274;BME280;45044;41.572;24.730;2023-02-01T02:34:06;91075.03;;;-3.19;100.00
59274;BME280;45044;41.572;24.730;2023-02-01T02:37:01;91080.69;;;-3.31;100.00
59274;BME280;45044;41.572;24.730;2023-02-01T02:39:39;91073.75;;;-3.31;100.00
59274;BME280;45044;41.572;24.730;2023-02-01T02:42:29;91087.53;;;-3.27;100.00
59274;BME280;45044;41.572;24.730;2023-02-01T02:45:20;91091.00;;;-3.31;100.00
59274;BME280;45044;41.572;24.730;2023-02-01T02:51:04;91077.97;;;-3.35;100.00
59274;BME280;45044;41.572;24.730;2023-02-01T02:54:13;91074.56;;;-3.44;100.00
59274;BME280;45044;41.572;24.730;2023-02-01T02:57:02;91080.28;;;-3.47;100.00
59274;BME280;45044;41.572;24.730;2023-02-01T02:59:50;91083.50;;;-3.42;100.00
59274;BME280;45044;41.572;24.730;2023-02-01T03:02:37;91080.41;;;-3.53;100.00
59274;BME280;45044;41.572;24.730;2023-02-01T03:05:23;91072.47;;;-3.42;100.00
59274;BME280;45044;41.572;24.730;2023-02-01T03:07:57;91069.06;;;-3.52;100.00
59274;BME280;45044;41.572;24.730;2023-02-01T03:13:11;91084.44;;;-3.38;100.00
59274;BME280;45044;41.572;24.730;2023-02-01T03:15:45;91068.25;;;-3.38;100.00
59274;BME280;45044;41.572;24.730;2023-02-01T03:18:44;91077.00;;;-3.39;100.00
59274;BME280;45044;41.572;24.730;2023-02-01T03:21:11;91086.03;;;-3.65;100.00
59274;BME280;45044;41.572;24.730;2023-02-01T03:23:40;91092.59;;;-3.58;100.00
59274;BME280;45044;41.572;24.730;2023-02-01T03:26:11;91090.81;;;-3.72;100.00
59274;BME280;45044;41.572;24.730;2023-02-01T03:29:05;91088.69;;;-4.07;100.00
59274;BME280;45044;41.572;24.730;2023-02-01T03:31:35;91079.94;;;-4.06;100.00
59274;BME280;45044;41.572;24.730;2023-02-01T03:34:03;91082.72;;;-4.02;100.00
59274;BME280;45044;41.572;24.730;2023-02-01T03:36:39;91088.53;;;-4.25;100.00
59274;BME280;45044;41.572;24.730;2023-02-01T03:39:24;91098.41;;;-4.18;100.00
59274;BME280;45044;41.572;24.730;2023-02-01T03:41:57;91094.13;;;-4.09;100.00
59274;BME280;45044;41.572;24.730;2023-02-01T03:46:57;91100.53;;;-3.83;100.00
59274;BME280;45044;41.572;24.730;2023-02-01T03:49:29;91107.03;;;-3.86;100.00
59274;BME280;45044;41.572;24.730;2023-02-01T03:51:58;91109.75;;;-3.68;100.00
59274;BME280;45044;41.572;24.730;2023-02-01T03:54:28;91110.78;;;-3.55;100.00
59274;BME280;45044;41.572;24.730;2023-02-01T03:56:59;91110.53;;;-3.44;100.00
59274;BME280;45044;41.572;24.730;2023-02-01T03:59:28;91124.66;;;-3.42;100.00
59274;BME280;45044;41.572;24.730;2023-02-01T04:01:54;91126.97;;;-3.31;100.00
59274;BME280;45044;41.572;24.730;2023-02-01T04:04:21;91138.84;;;-3.21;100.00
59274;BME280;45044;41.572;24.730;2023-02-01T04:06:49;91140.56;;;-3.17;100.00
59274;BME280;45044;41.572;24.730;2023-02-01T04:09:17;91146.63;;;-3.13;100.00
59274;BME280;45044;41.572;24.730;2023-02-01T04:11:44;91155.41;;;-3.14;100.00
59274;BME280;45044;41.572;24.730;2023-02-01T04:14:10;91153.72;;;-3.18;100.00
59274;BME280;45044;41.572;24.730;2023-02-01T04:16:37;91143.88;;;-3.16;100.00
59274;BME280;45044;41.572;24.730;2023-02-01T04:19:04;91151.38;;;-3.06;100.00
59274;BME280;45044;41.572;24.730;2023-02-01T04:21:31;91165.56;;;-3.08;100.00
59274;BME280;45044;41.572;24.730;2023-02-01T04:23:58;91154.31;;;-2.98;100.00
59274;BME280;45044;41.572;24.730;2023-02-01T04:26:25;91159.91;;;-2.96;100.00
59274;BME280;45044;41.572;24.730;2023-02-01T04:28:52;91167.41;;;-2.86;100.00
59274;BME280;45044;41.572;24.730;2023-02-01T04:31:19;91174.88;;;-2.75;100.00
59274;BME280;45044;41.572;24.730;2023-02-01T04:33:53;91176.16;;;-2.87;100.00
59274;BME280;45044;41.572;24.730;2023-02-01T04:36:21;91176.59;;;-2.71;100.00
59274;BME280;45044;41.572;24.730;2023-02-01T04:38:50;91195.03;;;-2.69;100.00
59274;BME280;45044;41.572;24.730;2023-02-01T04:41:18;91187.16;;;-2.49;100.00
59274;BME280;45044;41.572;24.730;2023-02-01T04:43:46;91193.69;;;-2.43;100.00
59274;BME280;45044;41.572;24.730;2023-02-01T04:46:13;91196.59;;;-2.36;100.00
59274;BME280;45044;41.572;24.730;2023-02-01T04:48:41;91188.88;;;-2.36;100.00
59274;BME280;45044;41.572;24.730;2023-02-01T04:51:08;91187.22;;;-2.32;100.00
59274;BME280;45044;41.572;24.730;2023-02-01T04:53:36;91185.38;;;-2.40;100.00
59274;BME280;45044;41.572;24.730;2023-02-01T04:56:03;91194.22;;;-2.55;100.00
59274;BME280;45044;41.572;24.730;2023-02-01T04:58:30;91181.78;;;-2.85;100.00
59274;BME280;45044;41.572;24.730;2023-02-01T05:00:57;91193.00;;;-3.04;100.00
59274;BME280;45044;41.572;24.730;2023-02-01T05:03:24;91194.03;;;-3.28;100.00
59274;BME280;45044;41.572;24.730;2023-02-01T05:05:51;91199.81;;;-3.22;100.00
59274;BME280;45044;41.572;24.730;2023-02-01T05:08:20;91204.59;;;-3.43;100.00
59274;BME280;45044;41.572;24.730;2023-02-01T05:10:48;91191.66;;;-3.38;100.00
59274;BME280;45044;41.572;24.730;2023-02-01T05:13:15;91202.69;;;-3.23;100.00
59274;BME280;45044;41.572;24.730;2023-02-01T05:16:01;91187.59;;;-3.16;100.00
59274;BME280;45044;41.572;24.730;2023-02-01T05:18:28;91194.59;;;-3.31;100.00
59274;BME280;45044;41.572;24.730;2023-02-01T05:20:55;91193.28;;;-3.42;100.00
59274;BME280;45044;41.572;24.730;2023-02-01T05:23:21;91192.22;;;-3.41;100.00
59274;BME280;45044;41.572;24.730;2023-02-01T05:25:48;91202.94;;;-3.25;100.00
59274;BME280;45044;41.572;24.730;2023-02-01T05:28:15;91205.50;;;-3.11;100.00
59274;BME280;45044;41.572;24.730;2023-02-01T05:30:42;91200.81;;;-3.09;100.00
59274;BME280;45044;41.572;24.730;2023-02-01T05:33:09;91209.75;;;-3.43;100.00
59274;BME280;45044;41.572;24.730;2023-02-01T05:35:35;91199.47;;;-3.43;100.00
59274;BME280;45044;41.572;24.730;2023-02-01T05:38:02;91211.03;;;-3.18;100.00
59274;BME280;45044;41.572;24.730;2023-02-01T05:40:29;91210.25;;;-3.04;100.00
59274;BME280;45044;41.572;24.730;2023-02-01T05:42:55;91190.28;;;-3.21;100.00
59274;BME280;45044;41.572;24.730;2023-02-01T05:45:22;91191.81;;;-3.20;100.00
59274;BME280;45044;41.572;24.730;2023-02-01T05:47:49;91189.97;;;-3.20;100.00
59274;BME280;45044;41.572;24.730;2023-02-01T05:50:16;91202.94;;;-3.11;100.00
59274;BME280;45044;41.572;24.730;2023-02-01T05:52:43;91201.06;;;-2.96;100.00
59274;BME280;45044;41.572;24.730;2023-02-01T05:55:10;91198.50;;;-2.96;100.00
59274;BME280;45044;41.572;24.730;2023-02-01T05:57:36;91197.78;;;-3.11;100.00
59274;BME280;45044;41.572;24.730;2023-02-01T06:00:04;91198.91;;;-3.40;100.00
59274;BME280;45044;41.572;24.730;2023-02-01T06:02:30;91201.41;;;-3.12;100.00
59274;BME280;45044;41.572;24.730;2023-02-01T06:04:57;91203.19;;;-2.98;100.00
59274;BME280;45044;41.572;24.730;2023-02-01T06:07:24;91208.50;;;-2.95;100.00
59274;BME280;45044;41.572;24.730;2023-02-01T06:09:54;91215.09;;;-2.80;100.00
59274;BME280;45044;41.572;24.730;2023-02-01T06:12:21;91207.03;;;-2.64;100.00
59274;BME280;45044;41.572;24.730;2023-02-01T06:14:48;91220.94;;;-2.65;100.00
59274;BME280;45044;41.572;24.730;2023-02-01T06:17:15;91209.06;;;-2.52;100.00
59274;BME280;45044;41.572;24.730;2023-02-01T06:19:41;91209.91;;;-2.66;100.00
59274;BME280;45044;41.572;24.730;2023-02-01T06:22:10;91206.78;;;-2.99;100.00
59274;BME280;45044;41.572;24.730;2023-02-01T06:24:37;91218.31;;;-2.97;100.00
59274;BME280;45044;41.572;24.730;2023-02-01T06:27:04;91216.22;;;-2.72;100.00
59274;BME280;45044;41.572;24.730;2023-02-01T06:29:30;91208.63;;;-2.77;100.00
59274;BME280;45044;41.572;24.730;2023-02-01T06:31:57;91222.50;;;-2.64;100.00
59274;BME280;45044;41.572;24.730;2023-02-01T06:34:24;91228.00;;;-2.57;100.00
59274;BME280;45044;41.572;24.730;2023-02-01T06:36:51;91215.75;;;-2.51;100.00
59274;BME280;45044;41.572;24.730;2023-02-01T06:39:18;91230.84;;;-2.35;100.00
59274;BME280;45044;41.572;24.730;2023-02-01T06:41:48;91228.34;;;-2.49;100.00
59274;BME280;45044;41.572;24.730;2023-02-01T06:44:16;91228.34;;;-2.18;100.00
59274;BME280;45044;41.572;24.730;2023-02-01T06:46:43;91228.03;;;-1.93;100.00
59274;BME280;45044;41.572;24.730;2023-02-01T06:49:09;91229.19;;;-1.99;100.00
59274;BME280;45044;41.572;24.730;2023-02-01T06:51:36;91227.16;;;-1.79;100.00
59274;BME280;45044;41.572;24.730;2023-02-01T06:54:03;91230.75;;;-1.40;100.00
59274;BME280;45044;41.572;24.730;2023-02-01T06:56:30;91227.53;;;-1.54;100.00
59274;BME280;45044;41.572;24.730;2023-02-01T06:58:58;91233.16;;;-1.52;100.00
59274;BME280;45044;41.572;24.730;2023-02-01T07:01:25;91226.28;;;-1.66;100.00
59274;BME280;45044;41.572;24.730;2023-02-01T07:03:52;91226.78;;;-1.55;100.00
59274;BME280;45044;41.572;24.730;2023-02-01T07:06:19;91229.19;;;-1.59;100.00
59274;BME280;45044;41.572;24.730;2023-02-01T07:08:46;91230.00;;;-1.49;100.00
59274;BME280;45044;41.572;24.730;2023-02-01T07:11:15;91233.16;;;-1.43;100.00
59274;BME280;45044;41.572;24.730;2023-02-01T07:13:42;91235.50;;;-1.24;100.00
59274;BME280;45044;41.572;24.730;2023-02-01T07:16:11;91235.03;;;-1.17;100.00
59274;BME280;45044;41.572;24.730;2023-02-01T07:18:38;91232.78;;;-1.19;100.00
59274;BME280;45044;41.572;24.730;2023-02-01T07:21:05;91229.25;;;-1.32;100.00
59274;BME280;45044;41.572;24.730;2023-02-01T07:23:32;91228.38;;;-1.27;100.00
59274;BME280;45044;41.572;24.730;2023-02-01T07:26:02;91235.81;;;-0.99;100.00
59274;BME280;45044;41.572;24.730;2023-02-01T07:28:31;91233.38;;;-1.22;100.00
59274;BME280;45044;41.572;24.730;2023-02-01T07:31:03;91231.75;;;-1.00;100.00
59274;BME280;45044;41.572;24.730;2023-02-01T07:33:30;91229.00;;;-1.04;100.00
59274;BME280;45044;41.572;24.730;2023-02-01T07:35:57;91235.81;;;-0.99;100.00
59274;BME280;45044;41.572;24.730;2023-02-01T07:38:24;91226.28;;;-0.90;100.00
59274;BME280;45044;41.572;24.730;2023-02-01T07:40:50;91236.59;;;-0.90;100.00
59274;BME280;45044;41.572;24.730;2023-02-01T07:43:17;91243.72;;;-0.87;100.00
59274;BME280;45044;41.572;24.730;2023-02-01T07:45:50;91236.59;;;-1.16;100.00
59274;BME280;45044;41.572;24.730;2023-02-01T07:48:17;91239.31;;;-1.13;100.00
59274;BME280;45044;41.572;24.730;2023-02-01T07:50:44;91257.97;;;-0.98;100.00
59274;BME280;45044;41.572;24.730;2023-02-01T07:53:11;91245.38;;;-1.17;100.00
59274;BME280;45044;41.572;24.730;2023-02-01T07:55:38;91255.22;;;-1.11;100.00
59274;BME280;45044;41.572;24.730;2023-02-01T07:58:06;91244.50;;;-0.95;100.00
59274;BME280;45044;41.572;24.730;2023-02-01T08:00:33;91251.16;;;-0.85;100.00
59274;BME280;45044;41.572;24.730;2023-02-01T08:03:18;91246.75;;;-1.02;100.00
59274;BME280;45044;41.572;24.730;2023-02-01T08:05:47;91243.25;;;-1.15;100.00
59274;BME280;45044;41.572;24.730;2023-02-01T08:08:14;91251.94;;;-0.93;100.00
59274;BME280;45044;41.572;24.730;2023-02-01T08:10:41;91254.50;;;-0.85;100.00
59274;BME280;45044;41.572;24.730;2023-02-01T08:13:07;91251.94;;;-0.67;100.00
59274;BME280;45044;41.572;24.730;2023-02-01T08:15:34;91256.94;;;-0.53;100.00
59274;BME280;45044;41.572;24.730;2023-02-01T08:18:01;91259.66;;;-0.49;100.00
59274;BME280;45044;41.572;24.730;2023-02-01T08:20:29;91256.63;;;-0.42;100.00
59274;BME280;45044;41.572;24.730;2023-02-01T08:22:56;91256.63;;;-0.33;100.00
59274;BME280;45044;41.572;24.730;2023-02-01T08:25:23;91249.16;;;-0.26;100.00
59274;BME280;45044;41.572;24.730;2023-02-01T08:27:50;91260.13;;;-0.29;100.00
59274;BME280;45044;41.572;24.730;2023-02-01T08:30:18;91255.25;;;-0.22;100.00
59274;BME280;45044;41.572;24.730;2023-02-01T08:32:45;91263.75;;;-0.21;100.00
59274;BME280;45044;41.572;24.730;2023-02-01T08:35:12;91262.50;;;-0.06;100.00
59274;BME280;45044;41.572;24.730;2023-02-01T08:37:39;91257.75;;;0.14;100.00
59274;BME280;45044;41.572;24.730;2023-02-01T08:40:06;91252.88;;;0.12;100.00
59274;BME280;45044;41.572;24.730;2023-02-01T08:42:33;91265.19;;;0.15;100.00
59274;BME280;45044;41.572;24.730;2023-02-01T08:45:21;91265.94;;;0.16;100.00
59274;BME280;45044;41.572;24.730;2023-02-01T08:47:48;91267.53;;;-0.10;100.00
59274;BME280;45044;41.572;24.730;2023-02-01T08:50:16;91267.13;;;-0.39;100.00
59274;BME280;45044;41.572;24.730;2023-02-01T08:52:43;91274.56;;;-0.28;100.00
59274;BME280;45044;41.572;24.730;2023-02-01T08:55:10;91279.25;;;-0.21;100.00
59274;BME280;45044;41.572;24.730;2023-02-01T08:57:38;91268.16;;;-0.22;100.00
59274;BME280;45044;41.572;24.730;2023-02-01T09:00:07;91282.13;;;-0.23;100.00
59274;BME280;45044;41.572;24.730;2023-02-01T09:02:35;91286.25;;;-0.13;100.00
59274;BME280;45044;41.572;24.730;2023-02-01T09:05:01;91282.91;;;-0.14;100.00
59274;BME280;45044;41.572;24.730;2023-02-01T09:07:28;91287.25;;;0.13;100.00
59274;BME280;45044;41.572;24.730;2023-02-01T09:09:55;91279.69;;;-0.10;100.00
59274;BME280;45044;41.572;24.730;2023-02-01T09:12:23;91264.00;;;0.13;100.00
59274;BME280;45044;41.572;24.730;2023-02-01T09:14:49;91269.25;;;0.34;100.00
59274;BME280;45044;41.572;24.730;2023-02-01T09:17:16;91264.84;;;0.34;100.00
59274;BME280;45044;41.572;24.730;2023-02-01T09:19:43;91270.16;;;0.68;100.00
59274;BME280;45044;41.572;24.730;2023-02-01T09:22:10;91272.47;;;0.31;100.00
59274;BME280;45044;41.572;24.730;2023-02-01T09:24:36;91270.97;;;0.21;100.00
59274;BME280;45044;41.572;24.730;2023-02-01T09:27:03;91264.25;;;0.29;100.00
59274;BME280;45044;41.572;24.730;2023-02-01T09:29:30;91275.59;;;0.45;100.00
59274;BME280;45044;41.572;24.730;2023-02-01T09:31:57;91263.69;;;0.53;100.00
59274;BME280;45044;41.572;24.730;2023-02-01T09:34:30;91268.44;;;0.81;100.00
59274;BME280;45044;41.572;24.730;2023-02-01T09:36:56;91250.31;;;0.81;100.00
59274;BME280;45044;41.572;24.730;2023-02-01T09:39:24;91266.50;;;1.00;100.00
59274;BME280;45044;41.572;24.730;2023-02-01T09:41:59;91270.94;;;1.21;100.00
59274;BME280;45044;41.572;24.730;2023-02-01T09:47:26;91256.22;;;1.55;100.00
59274;BME280;45044;41.572;24.730;2023-02-01T09:50:05;91249.41;;;1.29;99.87
59274;BME280;45044;41.572;24.730;2023-02-01T09:52:45;91253.19;;;1.31;100.00
59274;BME280;45044;41.572;24.730;2023-02-01T09:55:20;91248.50;;;2.01;87.61
59274;BME280;45044;41.572;24.730;2023-02-01T09:57:59;91236.97;;;1.43;83.11
59274;BME280;45044;41.572;24.730;2023-02-01T10:00:34;91231.81;;;1.90;85.73
59274;BME280;45044;41.572;24.730;2023-02-01T10:03:02;91232.94;;;2.01;92.60
59274;BME280;45044;41.572;24.730;2023-02-01T10:08:25;91217.13;;;1.82;83.47
59274;BME280;45044;41.572;24.730;2023-02-01T10:11:08;91218.91;;;2.27;100.00
59274;BME280;45044;41.572;24.730;2023-02-01T10:14:18;91223.25;;;2.48;100.00
59274;BME280;45044;41.572;24.730;2023-02-01T10:16:56;91204.97;;;2.32;80.80
59274;BME280;45044;41.572;24.730;2023-02-01T10:19:39;91221.13;;;3.58;80.33
59274;BME280;45044;41.572;24.730;2023-02-01T10:22:10;91209.59;;;2.89;77.85
59274;BME280;45044;41.572;24.730;2023-02-01T10:24:52;91218.97;;;3.19;83.68
59274;BME280;45044;41.572;24.730;2023-02-01T10:27:30;91221.63;;;3.35;74.02
59274;BME280;45044;41.572;24.730;2023-02-01T10:30:14;91225.13;;;3.27;84.13
59274;BME280;45044;41.572;24.730;2023-02-01T10:32:42;91214.28;;;3.25;86.02
59274;BME280;45044;41.572;24.730;2023-02-01T10:37:36;91210.06;;;2.54;79.12
59274;BME280;45044;41.572;24.730;2023-02-01T10:40:29;91219.88;;;2.60;92.45
59274;BME280;45044;41.572;24.730;2023-02-01T10:42:59;91209.19;;;2.24;96.76
59274;BME280;45044;41.572;24.730;2023-02-01T10:45:29;91224.75;;;2.24;90.14
59274;BME280;45044;41.572;24.730;2023-02-01T10:47:59;91215.41;;;1.98;91.63
59274;BME280;45044;41.572;24.730;2023-02-01T10:53:24;91211.84;;;1.90;100.00
59274;BME280;45044;41.572;24.730;2023-02-01T10:55:53;91217.69;;;1.66;100.00
59274;BME280;45044;41.572;24.730;2023-02-01T10:58:25;91211.41;;;1.33;100.00
59274;BME280;45044;41.572;24.730;2023-02-01T11:00:57;91201.94;;;1.71;100.00
59274;BME280;45044;41.572;24.730;2023-02-01T11:05:57;91205.41;;;1.75;98.35
59274;BME280;45044;41.572;24.730;2023-02-01T11:08:24;91205.91;;;2.02;100.00
59274;BME280;45044;41.572;24.730;2023-02-01T11:11:02;91180.03;;;1.69;95.65
59274;BME280;45044;41.572;24.730;2023-02-01T11:13:33;91202.25;;;1.70;97.15
59274;BME280;45044;41.572;24.730;2023-02-01T11:16:04;91187.00;;;1.55;100.00
59274;BME280;45044;41.572;24.730;2023-02-01T11:18:35;91192.84;;;1.52;100.00
59274;BME280;45044;41.572;24.730;2023-02-01T11:21:04;91203.44;;;1.60;100.00
59274;BME280;45044;41.572;24.730;2023-02-01T11:23:32;91193.31;;;1.67;94.71
59274;BME280;45044;41.572;24.730;2023-02-01T11:26:02;91191.03;;;1.65;93.78
59274;BME280;45044;41.572;24.730;2023-02-01T11:28:37;91174.84;;;1.69;98.26
59274;BME280;45044;41.572;24.730;2023-02-01T11:31:09;91195.53;;;1.90;100.00
59274;BME280;45044;41.572;24.730;2023-02-01T11:33:39;91187.47;;;1.70;100.00
59274;BME280;45044;41.572;24.730;2023-02-01T11:36:18;91184.00;;;2.00;100.00
59274;BME280;45044;41.572;24.730;2023-02-01T11:41:44;91179.78;;;2.20;100.00
59274;BME280;45044;41.572;24.730;2023-02-01T11:44:33;91179.97;;;2.02;91.01
59274;BME280;45044;41.572;24.730;2023-02-01T11:49:47;91181.44;;;1.78;100.00
59274;BME280;45044;41.572;24.730;2023-02-01T11:55:28;91178.47;;;1.89;100.00
59274;BME280;45044;41.572;24.730;2023-02-01T12:20:10;91184.34;;;3.43;74.10
59274;BME280;45044;41.572;24.730;2023-02-01T12:34:09;91178.16;;;2.53;85.07
59274;BME280;45044;41.572;24.730;2023-02-01T12:39:23;91168.00;;;2.23;87.60
59274;BME280;45044;41.572;24.730;2023-02-01T12:41:55;91191.69;;;2.34;83.70
59274;BME280;45044;41.572;24.730;2023-02-01T12:47:09;91178.69;;;2.46;88.29
59274;BME280;45044;41.572;24.730;2023-02-01T12:49:46;91180.41;;;2.55;81.66
59274;BME280;45044;41.572;24.730;2023-02-01T12:52:28;91191.03;;;2.37;81.63
59274;BME280;45044;41.572;24.730;2023-02-01T12:55:07;91190.38;;;2.27;81.58
59274;BME280;45044;41.572;24.730;2023-02-01T12:57:40;91183.13;;;2.33;86.81
59274;BME280;45044;41.572;24.730;2023-02-01T13:08:42;91170.25;;;1.99;87.86
59274;BME280;45044;41.572;24.730;2023-02-01T13:11:44;91164.63;;;2.22;96.35
59274;BME280;45044;41.572;24.730;2023-02-01T13:14:26;91167.25;;;2.22;88.06
59274;BME280;45044;41.572;24.730;2023-02-01T13:17:00;91170.72;;;2.26;87.08
59274;BME280;45044;41.572;24.730;2023-02-01T13:22:22;91179.38;;;2.31;79.67
59274;BME280;45044;41.572;24.730;2023-02-01T13:24:59;91189.50;;;2.11;89.43
59274;BME280;45044;41.572;24.730;2023-02-01T13:27:28;91185.94;;;2.15;82.10
59274;BME280;45044;41.572;24.730;2023-02-01T13:42:21;91175.22;;;1.92;96.04
59274;BME280;45044;41.572;24.730;2023-02-01T13:44:22;91180.19;;;1.97;88.34
59274;BME280;45044;41.572;24.730;2023-02-01T13:46:56;91178.47;;;1.89;86.83
59274;BME280;45044;41.572;24.730;2023-02-01T13:49:27;91174.34;;;1.88;84.09
59274;BME280;45044;41.572;24.730;2023-02-01T13:51:57;91166.91;;;1.99;93.94
59274;BME280;45044;41.572;24.730;2023-02-01T13:54:33;91180.00;;;2.15;91.87
59274;BME280;45044;41.572;24.730;2023-02-01T13:57:04;91184.34;;;2.23;91.95
59274;BME280;45044;41.572;24.730;2023-02-01T14:02:36;91189.94;;;2.25;90.31
59274;BME280;45044;41.572;24.730;2023-02-01T14:05:06;91177.41;;;2.53;89.30
59274;BME280;45044;41.572;24.730;2023-02-01T14:07:34;91187.34;;;2.50;85.04
59274;BME280;45044;41.572;24.730;2023-02-01T14:10:54;91199.03;;;2.57;82.60
59274;BME280;45044;41.572;24.730;2023-02-01T14:13:36;91195.16;;;2.50;85.20
59274;BME280;45044;41.572;24.730;2023-02-01T14:21:21;91199.56;;;2.37;77.30
59274;BME280;45044;41.572;24.730;2023-02-01T14:28:57;91198.47;;;2.13;83.66
59274;BME280;45044;41.572;24.730;2023-02-01T14:33:59;91199.22;;;2.14;97.84
59274;BME280;45044;41.572;24.730;2023-02-01T14:36:39;91196.91;;;1.87;97.46
59274;BME280;45044;41.572;24.730;2023-02-01T14:39:31;91204.38;;;1.89;84.39
59274;BME280;45044;41.572;24.730;2023-02-01T14:42:03;91195.84;;;1.88;90.10
59274;BME280;45044;41.572;24.730;2023-02-01T14:44:33;91204.50;;;1.93;95.26
59274;BME280;45044;41.572;24.730;2023-02-01T14:47:27;91215.06;;;1.53;99.17
59274;BME280;45044;41.572;24.730;2023-02-01T14:49:59;91199.81;;;1.18;100.00
59274;BME280;45044;41.572;24.730;2023-02-01T14:53:28;91201.09;;;1.12;96.62
59274;BME280;45044;41.572;24.730;2023-02-01T14:55:46;91213.38;;;1.15;100.00
59274;BME280;45044;41.572;24.730;2023-02-01T15:00:57;91217.72;;;0.80;100.00
59274;BME280;45044;41.572;24.730;2023-02-01T15:03:45;91227.28;;;0.58;100.00
59274;BME280;45044;41.572;24.730;2023-02-01T15:06:27;91231.81;;;0.31;100.00
59274;BME280;45044;41.572;24.730;2023-02-01T15:11:31;91239.03;;;0.17;100.00
59274;BME280;45044;41.572;24.730;2023-02-01T15:13:58;91236.50;;;-0.01;100.00
59274;BME280;45044;41.572;24.730;2023-02-01T15:16:26;91232.56;;;-0.07;100.00
59274;BME280;45044;41.572;24.730;2023-02-01T15:19:07;91235.44;;;0.00;100.00